YBCG

Details ICAO YBCG (OOL)
Name Gold Coast International
Region Australia
Timezone Australia/Brisbane (UTC+10.0)
Plans Departing 573
Arriving 544
Stats Elevation 20 ft / 6 m (AMSL)
Location -28.165500° 153.506000°
Runways 2
Magnetic Variation 11.341° E
Sunrise 2019-07-15 20:37:33 UTC / 2019-07-16 06:37:33 Local
Sunset 2019-07-16 07:08:30 UTC / 2019-07-16 17:08:30 Local
Advertisement - Login to hide

Runways

ID Width Length Bearing (true/mag) Surface Threshold Overrun Markings Lighting
14 148 ft / 45 m 7,178 ft / 2,188 m 150.70° / 139.36° ASPHALT 0 ft / 0 m 400 ft / 122 m PREC-APP EDGE THRESHOLD TDZ REIL-OMNI
17 59 ft / 18 m 1,915 ft / 584 m 183.99° / 172.65° ASPHALT 0 ft / 0 m 102 ft / 31 m APP
32 148 ft / 45 m 7,178 ft / 2,188 m 330.69° / 319.35° ASPHALT 0 ft / 0 m 1,480 ft / 451 m PREC-APP EDGE THRESHOLD TDZ REIL-OMNI
35 59 ft / 18 m 1,915 ft / 584 m 3.99° / 352.65° ASPHALT 0 ft / 0 m 0 ft / 0 m APP

Map

Weather


0- 5 10 15 20 25 30 35+ Temperature / °C

Clouds and Precipitation
Forecast for 2019-07-16 00:00 UTC. Updated 26 minutes ago

Ground ~20,000 ft ~40,000 ft Winds

METAR

YBCG 152200Z AUTO 00000KT 9999 // NCD 11/08 Q1019

TAF

TAF YBCG 151715Z 1518/1618 22006KT CAVOK FM152300 32007KT CAVOK FM160800 22006KT CAVOK

Frequencies

Recorded 134.50 MHz Gold Coast ATIS
Tower 118.70 MHz Gold Coast TWR
Approach 123.80 MHz Gold Coast APP
Warning: Do not use this data for real-world aviation or navigation. No guarantee of current accuracy is given.